Time,TemperatureF,DewpointF,PressureIn,WindDirection,WindDirectionDegrees,WindSpeedMPH,WindSpeedGustMPH,Humidity,HourlyPrecipIn,Conditions,Clouds,dailyrainin,SoftwareType,DateUTC
2011-05-24 00:04:00,62.8,24.1,29.71,West,270,6.5,6.5,23,0.00,,,0.00,open2300-1.11,2011-05-24 06:04:00,
2011-05-24 00:14:00,62.8,24.1,29.71,SW,225,0.0,12.8,23,0.00,,,0.00,open2300-1.11,2011-05-24 06:14:00,
2011-05-24 00:24:00,62.4,24.8,29.71,WSW,247,2.5,2.5,24,0.00,,,0.00,open2300-1.11,2011-05-24 06:24:00,
2011-05-24 00:34:00,62.2,24.6,29.71,WSW,247,0.0,2.5,24,0.00,,,0.00,open2300-1.11,2011-05-24 06:34:00,
2011-05-24 00:44:00,61.5,26.9,29.71,WNW,292,0.0,0.0,27,0.00,,,0.00,open2300-1.11,2011-05-24 06:44:00,
2011-05-24 00:54:00,61.0,26.4,29.71,SW,225,1.3,1.3,27,0.00,,,0.00,open2300-1.11,2011-05-24 06:54:00,
2011-05-24 01:04:00,60.6,27.0,29.71,SW,225,0.0,1.3,28,0.00,,,0.00,open2300-1.11,2011-05-24 07:04:00,
2011-05-24 01:14:00,60.4,26.9,29.71,West,270,2.9,2.9,28,0.00,,,0.00,open2300-1.11,2011-05-24 07:14:00,
2011-05-24 01:24:00,60.4,26.0,29.71,WSW,247,0.0,2.9,27,0.00,,,0.00,open2300-1.11,2011-05-24 07:24:00,
2011-05-24 01:34:00,60.1,26.6,29.71,West,270,0.0,0.0,28,0.00,,,0.00,open2300-1.11,2011-05-24 07:34:00,
2011-05-24 01:44:00,59.5,27.1,29.71,West,270,0.0,0.0,29,0.00,,,0.00,open2300-1.11,2011-05-24 07:44:00,
2011-05-24 01:54:00,59.4,26.0,29.71,WNW,292,0.0,0.0,28,0.00,,,0.00,open2300-1.11,2011-05-24 07:54:00,
2011-05-24 02:04:00,59.0,26.7,29.71,WSW,247,0.0,0.0,29,0.00,,,0.00,open2300-1.11,2011-05-24 08:04:00,
2011-05-24 02:14:00,58.8,26.5,29.71,West,270,0.0,0.0,29,0.00,,,0.00,open2300-1.11,2011-05-24 08:14:00,
2011-05-24 02:24:00,58.8,26.5,29.71,West,270,0.0,0.0,29,0.00,,,0.00,open2300-1.11,2011-05-24 08:24:00,
2011-05-24 02:34:00,58.6,26.4,29.71,SW,225,0.0,2.5,29,0.00,,,0.00,open2300-1.11,2011-05-24 08:34:00,
2011-05-24 02:44:00,58.5,26.2,29.70,SW,225,0.0,0.0,29,0.00,,,0.00,open2300-1.11,2011-05-24 08:44:00,
2011-05-24 02:54:00,58.1,25.9,29.70,WSW,247,0.0,0.0,29,0.00,,,0.00,open2300-1.11,2011-05-24 08:54:00,
2011-05-24 03:04:00,57.9,25.7,29.70,WSW,247,0.0,0.0,29,0.00,,,0.00,open2300-1.11,2011-05-24 09:04:00,
2011-05-24 03:14:00,57.7,26.5,29.69,WNW,292,0.0,6.0,30,0.00,,,0.00,open2300-1.11,2011-05-24 09:14:00,
2011-05-24 03:24:00,57.4,26.2,29.69,WSW,247,0.0,0.0,30,0.00,,,0.00,open2300-1.11,2011-05-24 09:24:00,
2011-05-24 03:34:00,56.8,25.7,29.69,WSW,247,0.0,0.0,30,0.00,,,0.00,open2300-1.11,2011-05-24 09:34:00,
2011-05-24 03:44:00,56.5,26.1,29.69,North,0,0.0,2.0,31,0.00,,,0.00,open2300-1.11,2011-05-24 09:44:00,
2011-05-24 03:54:00,56.1,26.5,29.69,WNW,292,0.0,0.0,32,0.00,,,0.00,open2300-1.11,2011-05-24 09:54:00,
2011-05-24 04:04:00,55.8,26.2,29.69,WSW,247,0.0,0.0,32,0.00,,,0.00,open2300-1.11,2011-05-24 10:04:00,
2011-05-24 04:14:00,55.4,25.8,29.69,WSW,247,0.0,0.0,32,0.00,,,0.00,open2300-1.11,2011-05-24 10:14:00,
2011-05-24 04:24:00,55.2,27.1,29.71,SW,225,0.0,0.0,34,0.00,,,0.00,open2300-1.11,2011-05-24 10:24:00,
2011-05-24 04:34:00,55.0,29.0,29.71,WNW,292,0.0,0.0,37,0.00,,,0.00,open2300-1.11,2011-05-24 10:34:00,
2011-05-24 04:44:00,54.7,30.8,29.71,West,270,0.0,0.0,40,0.00,,,0.00,open2300-1.11,2011-05-24 10:44:00,
2011-05-24 04:54:00,54.3,30.5,29.71,West,270,0.0,0.0,40,0.00,,,0.00,open2300-1.11,2011-05-24 10:54:00,
2011-05-24 05:04:00,54.1,32.6,29.71,West,270,0.0,0.0,44,0.00,,,0.00,open2300-1.11,2011-05-24 11:04:00,
2011-05-24 05:14:00,53.8,32.2,29.71,West,270,0.0,0.0,44,0.00,,,0.00,open2300-1.11,2011-05-24 11:14:00,
2011-05-24 05:24:00,53.8,33.3,29.72,NNW,337,0.0,0.0,46,0.00,,,0.00,open2300-1.11,2011-05-24 11:24:00,
2011-05-24 05:34:00,53.6,33.8,29.71,NNW,337,0.0,0.0,47,0.00,,,0.00,open2300-1.11,2011-05-24 11:34:00,
2011-05-24 05:44:00,53.6,34.3,29.72,NW,315,0.0,0.0,48,0.00,,,0.00,open2300-1.11,2011-05-24 11:44:00,
2011-05-24 05:54:00,53.4,34.7,29.72,NW,315,0.0,0.0,49,0.00,,,0.00,open2300-1.11,2011-05-24 11:54:00,
2011-05-24 06:04:00,53.4,34.7,29.72,NW,315,0.0,0.0,49,0.00,,,0.00,open2300-1.11,2011-05-24 12:04:00,
2011-05-24 06:14:00,53.4,34.7,29.73,West,270,0.0,0.0,49,0.00,,,0.00,open2300-1.11,2011-05-24 12:14:00,
2011-05-24 06:24:00,53.4,35.3,29.73,West,270,0.0,0.0,50,0.00,,,0.00,open2300-1.11,2011-05-24 12:24:00,
2011-05-24 06:34:00,52.9,35.2,29.73,NW,315,0.0,0.0,51,0.00,,,0.00,open2300-1.11,2011-05-24 12:34:00,
2011-05-24 06:44:00,52.9,35.7,29.74,NNW,337,0.0,1.3,52,0.00,,,0.00,open2300-1.11,2011-05-24 12:44:00,
2011-05-24 06:54:00,52.9,36.1,29.74,NNW,337,0.0,0.0,53,0.00,,,0.00,open2300-1.11,2011-05-24 12:54:00,
2011-05-24 07:04:00,52.7,36.0,29.75,NNW,337,0.0,0.0,53,0.00,,,0.00,open2300-1.11,2011-05-24 13:04:00,
2011-05-24 07:14:00,52.7,36.5,29.76,NNE,22,0.0,0.0,54,0.00,,,0.00,open2300-1.11,2011-05-24 13:14:00,
2011-05-24 07:24:00,52.7,36.5,29.76,ENE,67,0.0,0.0,54,0.00,,,0.00,open2300-1.11,2011-05-24 13:24:00,
2011-05-24 07:34:00,52.7,36.5,29.76,North,0,0.0,0.0,54,0.00,,,0.00,open2300-1.11,2011-05-24 13:34:00,
2011-05-24 07:44:00,52.7,36.5,29.76,South,180,0.0,0.0,54,0.00,,,0.00,open2300-1.11,2011-05-24 13:44:00,
2011-05-24 07:54:00,52.5,36.3,29.75,NE,45,0.0,0.0,54,0.00,,,0.00,open2300-1.11,2011-05-24 13:54:00,
2011-05-24 08:04:00,52.5,35.8,29.76,NE,45,0.0,0.0,53,0.00,,,0.00,open2300-1.11,2011-05-24 14:04:00,
2011-05-24 08:14:00,52.5,36.3,29.76,NE,45,0.0,0.0,54,0.00,,,0.00,open2300-1.11,2011-05-24 14:14:00,
2011-05-24 08:24:00,52.5,36.3,29.76,NE,45,0.0,0.0,53,0.00,,,0.00,open2300-1.11,2011-05-24 14:24:00,
2011-05-24 08:34:00,52.9,36.1,29.76,East,90,0.0,0.0,53,0.00,,,0.00,open2300-1.11,2011-05-24 14:34:00,
2011-05-24 08:44:00,53.4,36.6,29.77,SE,135,2.0,2.0,53,0.00,,,0.00,open2300-1.11,2011-05-24 14:44:00,
2011-05-24 08:54:00,54.1,36.8,29.77,East,90,0.0,2.0,52,0.00,,,0.00,open2300-1.11,2011-05-24 14:54:00,
2011-05-24 09:04:00,55.0,37.2,29.77,SSW,202,0.0,1.1,51,0.00,,,0.00,open2300-1.11,2011-05-24 15:04:00,
2011-05-24 09:14:00,55.6,37.2,29.77,SE,135,0.0,0.0,50,0.00,,,0.00,open2300-1.11,2011-05-24 15:14:00,
2011-05-24 09:24:00,55.9,37.6,29.77,SSE,157,0.0,0.0,50,0.00,,,0.00,open2300-1.11,2011-05-24 15:24:00,
2011-05-24 09:34:00,56.5,38.1,29.77,SE,135,0.0,0.0,50,0.00,,,0.00,open2300-1.11,2011-05-24 15:34:00,
2011-05-24 09:44:00,57.0,38.1,29.77,WNW,292,0.4,0.4,49,0.00,,,0.00,open2300-1.11,2011-05-24 15:44:00,
2011-05-24 09:54:00,57.6,38.6,29.77,WNW,292,0.0,0.4,49,0.00,,,0.00,open2300-1.11,2011-05-24 15:54:00,
2011-05-24 10:04:00,58.5,39.4,29.78,NNE,22,0.0,2.0,49,0.00,,,0.00,open2300-1.11,2011-05-24 16:04:00,
2011-05-24 10:14:00,58.8,38.6,29.78,SSW,202,0.0,2.9,47,0.00,,,0.00,open2300-1.11,2011-05-24 16:14:00,
2011-05-24 10:24:00,59.7,37.7,29.78,WSW,247,2.0,4.9,44,0.00,,,0.00,open2300-1.11,2011-05-24 16:24:00,
2011-05-24 10:34:00,59.7,38.2,29.77,NW,315,1.1,5.6,45,0.00,,,0.00,open2300-1.11,2011-05-24 16:34:00,
2011-05-24 10:44:00,60.1,38.5,29.77,WNW,292,0.0,1.8,45,0.00,,,0.00,open2300-1.11,2011-05-24 16:44:00,
2011-05-24 10:54:00,60.4,38.3,29.78,WNW,292,0.0,3.6,44,0.00,,,0.00,open2300-1.11,2011-05-24 16:54:00,
2011-05-24 11:04:00,60.4,37.7,29.78,WNW,292,5.1,5.1,43,0.00,,,0.00,open2300-1.11,2011-05-24 17:04:00,
2011-05-24 11:14:00,60.4,38.3,29.78,SW,225,3.8,5.4,44,0.00,,,0.00,open2300-1.11,2011-05-24 17:14:00,
2011-05-24 11:24:00,60.3,38.1,29.78,SW,225,3.1,8.9,44,0.00,,,0.00,open2300-1.11,2011-05-24 17:24:00,
2011-05-24 11:34:00,60.8,38.0,29.78,WNW,292,6.3,6.3,43,0.00,,,0.00,open2300-1.11,2011-05-24 17:34:00,
2011-05-24 11:54:00,60.6,38.5,29.78,WNW,292,3.8,5.1,44,0.00,,,0.00,open2300-1.11,2011-05-24 17:54:00,
2011-05-24 12:04:00,61.5,38.1,29.77,SSW,202,0.0,4.2,42,0.00,,,0.00,open2300-1.11,2011-05-24 18:04:00,
2011-05-24 12:14:00,62.4,38.9,29.78,NW,315,5.4,5.4,42,0.00,,,0.00,open2300-1.11,2011-05-24 18:14:00,
2011-05-24 12:34:00,61.0,38.2,29.79,NW,315,4.2,5.8,43,0.00,,,0.00,open2300-1.11,2011-05-24 18:34:00,
2011-05-24 12:44:00,61.5,38.7,29.79,NW,315,0.0,4.2,43,0.00,,,0.00,open2300-1.11,2011-05-24 18:44:00,
2011-05-24 12:54:00,62.6,39.1,29.79,WNW,292,0.4,0.4,42,0.00,,,0.00,open2300-1.11,2011-05-24 18:54:00,
2011-05-24 13:04:00,62.2,38.8,29.78,West,270,0.0,0.4,42,0.00,,,0.00,open2300-1.11,2011-05-24 19:04:00,
2011-05-24 13:14:00,62.2,39.9,29.79,NW,315,0.0,3.4,44,0.00,,,0.00,open2300-1.11,2011-05-24 19:14:00,
2011-05-24 13:24:00,63.7,40.1,29.79,NW,315,0.0,6.3,42,0.00,,,0.00,open2300-1.11,2011-05-24 19:24:00,
2011-05-24 13:34:00,63.0,39.4,29.80,WNW,292,0.2,3.6,42,0.00,,,0.00,open2300-1.11,2011-05-24 19:34:00,
2011-05-24 13:44:00,61.9,40.2,29.80,North,0,0.7,4.2,45,0.00,,,0.00,open2300-1.11,2011-05-24 19:44:00,
2011-05-24 13:54:00,62.4,41.2,29.80,NW,315,0.0,1.8,46,0.00,,,0.00,open2300-1.11,2011-05-24 19:54:00,
2011-05-24 14:04:00,63.1,41.3,29.79,North,0,0.0,0.0,45,0.00,,,0.00,open2300-1.11,2011-05-24 20:04:00,
2011-05-24 14:14:00,63.5,41.6,29.80,West,270,0.0,3.1,45,0.00,,,0.00,open2300-1.11,2011-05-24 20:14:00,
2011-05-24 14:24:00,63.3,40.9,29.80,NW,315,0.0,5.1,44,0.00,,,0.00,open2300-1.11,2011-05-24 20:24:00,
2011-05-24 14:34:00,63.1,41.9,29.80,West,270,1.1,5.4,46,0.00,,,0.00,open2300-1.11,2011-05-24 20:34:00,
2011-05-24 14:44:00,63.3,41.5,29.81,West,270,0.0,4.7,45,0.00,,,0.00,open2300-1.11,2011-05-24 20:44:00,
2011-05-24 14:54:00,64.4,43.0,29.81,NE,45,2.7,3.8,46,0.00,,,0.00,open2300-1.11,2011-05-24 20:54:00,
2011-05-24 15:04:00,64.2,41.7,29.81,ENE,67,0.9,3.4,44,0.00,,,0.00,open2300-1.11,2011-05-24 21:04:00,
2011-05-24 15:14:00,63.7,42.4,29.81,ENE,67,0.0,4.5,46,0.00,,,0.00,open2300-1.11,2011-05-24 21:14:00,
2011-05-24 15:24:00,64.0,42.7,29.81,West,270,6.0,6.0,46,0.00,,,0.00,open2300-1.11,2011-05-24 21:24:00,
2011-05-24 15:34:00,64.6,40.9,29.82,NNW,337,0.0,6.7,42,0.00,,,0.00,open2300-1.11,2011-05-24 21:34:00,
2011-05-24 15:44:00,63.0,41.7,29.83,WSW,247,0.0,8.9,46,0.00,,,0.00,open2300-1.11,2011-05-24 21:44:00,
2011-05-24 15:54:00,60.6,42.4,29.83,WSW,247,0.0,3.1,51,0.00,,,0.00,open2300-1.11,2011-05-24 21:54:00,
2011-05-24 16:04:00,59.9,42.7,29.84,West,270,2.7,2.7,53,0.00,,,0.00,open2300-1.11,2011-05-24 22:04:00,
2011-05-24 16:14:00,60.1,42.8,29.83,NW,315,4.9,5.4,53,0.00,,,0.00,open2300-1.11,2011-05-24 22:14:00,
2011-05-24 16:24:00,61.3,43.0,29.84,NW,315,0.0,5.1,51,0.00,,,0.00,open2300-1.11,2011-05-24 22:24:00,
2011-05-24 16:34:00,62.2,43.4,29.84,NE,45,0.0,3.8,50,0.00,,,0.00,open2300-1.11,2011-05-24 22:34:00,
2011-05-24 16:44:00,62.1,42.1,29.85,NNE,22,0.0,5.1,48,0.00,,,0.00,open2300-1.11,2011-05-24 22:44:00,
2011-05-24 16:54:00,62.1,42.6,29.85,North,0,0.0,0.0,49,0.00,,,0.00,open2300-1.11,2011-05-24 22:54:00,
2011-05-24 17:04:00,61.9,41.9,29.84,NNW,337,0.0,0.0,48,0.00,,,0.00,open2300-1.11,2011-05-24 23:04:00,
2011-05-24 17:14:00,61.5,41.0,29.84,NNW,337,1.1,2.5,47,0.00,,,0.00,open2300-1.11,2011-05-24 23:14:00,
2011-05-24 17:24:00,61.5,41.0,29.85,WNW,292,2.9,2.9,47,0.00,,,0.00,open2300-1.11,2011-05-24 23:24:00,
2011-05-24 17:34:00,61.5,40.4,29.84,West,270,0.0,2.9,46,0.00,,,0.00,open2300-1.11,2011-05-24 23:34:00,
2011-05-24 17:44:00,61.3,39.7,29.84,NNW,337,0.0,0.0,45,0.00,,,0.00,open2300-1.11,2011-05-24 23:44:00,
2011-05-24 17:54:00,61.3,39.7,29.84,WSW,247,0.0,0.0,45,0.00,,,0.00,open2300-1.11,2011-05-24 23:54:00,
2011-05-24 18:04:00,61.3,39.1,29.84,WSW,247,0.0,3.6,44,0.00,,,0.00,open2300-1.11,2011-05-25 00:04:00,
2011-05-24 18:14:00,61.3,39.1,29.84,WSW,247,3.6,3.6,44,0.00,,,0.00,open2300-1.11,2011-05-25 00:14:00,
2011-05-24 18:24:00,61.3,39.1,29.84,WSW,247,0.0,3.6,44,0.00,,,0.00,open2300-1.11,2011-05-25 00:24:00,
2011-05-24 18:34:00,61.2,38.4,29.84,WNW,292,0.0,0.7,43,0.00,,,0.00,open2300-1.11,2011-05-25 00:34:00,
2011-05-24 18:44:00,61.0,37.6,29.84,WNW,292,0.0,0.0,42,0.00,,,0.00,open2300-1.11,2011-05-25 00:44:00,
2011-05-24 18:54:00,60.6,36.7,29.84,WNW,292,0.9,2.0,41,0.00,,,0.00,open2300-1.11,2011-05-25 00:54:00,
2011-05-24 19:04:00,60.6,36.2,29.84,NW,315,1.6,1.6,40,0.00,,,0.00,open2300-1.11,2011-05-25 01:04:00,
2011-05-24 19:14:00,60.4,34.6,29.85,WNW,292,0.0,1.6,38,0.00,,,0.00,open2300-1.11,2011-05-25 01:14:00,
2011-05-24 19:24:00,60.4,34.6,29.85,NW,315,0.0,2.0,38,0.00,,,0.00,open2300-1.11,2011-05-25 01:24:00,
2011-05-24 19:34:00,60.1,34.2,29.85,NW,315,0.0,1.1,38,0.00,,,0.00,open2300-1.11,2011-05-25 01:34:00,
2011-05-24 19:44:00,59.7,33.2,29.85,NW,315,1.6,1.6,37,0.00,,,0.00,open2300-1.11,2011-05-25 01:44:00,
2011-05-24 19:54:00,59.7,34.6,29.86,NNW,337,0.0,1.6,39,0.00,,,0.00,open2300-1.11,2011-05-25 01:54:00,
2011-05-24 20:04:00,59.4,35.0,29.86,WNW,292,0.0,0.0,40,0.00,,,0.00,open2300-1.11,2011-05-25 02:04:00,
2011-05-24 20:14:00,59.2,35.4,29.87,NNW,337,0.0,0.0,41,0.00,,,0.00,open2300-1.11,2011-05-25 02:14:00,
2011-05-24 20:24:00,58.8,36.8,29.87,North,0,0.0,2.5,44,0.00,,,0.00,open2300-1.11,2011-05-25 02:24:00,
2011-05-24 20:34:00,58.6,37.3,29.87,NE,45,0.0,0.0,45,0.00,,,0.00,open2300-1.11,2011-05-25 02:34:00,
2011-05-24 20:44:00,58.3,36.9,29.88,NNE,22,0.0,1.1,45,0.00,,,0.00,open2300-1.11,2011-05-25 02:44:00,
2011-05-24 20:54:00,58.1,36.8,29.89,NNW,337,0.0,2.0,45,0.00,,,0.00,open2300-1.11,2011-05-25 02:54:00,
2011-05-24 21:04:00,57.9,36.6,29.89,NW,315,3.1,3.1,45,0.00,,,0.00,open2300-1.11,2011-05-25 03:04:00,
2011-05-24 21:14:00,57.9,35.5,29.90,NW,315,0.0,3.1,43,0.00,,,0.00,open2300-1.11,2011-05-25 03:14:00,
2011-05-24 21:24:00,57.7,37.0,29.91,NNE,22,0.0,0.0,46,0.00,,,0.00,open2300-1.11,2011-05-25 03:24:00,
2011-05-24 21:34:00,57.4,36.7,29.92,NNE,22,0.0,0.0,46,0.00,,,0.00,open2300-1.11,2011-05-25 03:34:00,
2011-05-24 21:44:00,57.0,36.4,29.91,NNE,22,0.0,2.7,46,0.00,,,0.00,open2300-1.11,2011-05-25 03:44:00,
2011-05-24 21:54:00,56.8,36.2,29.91,NNW,337,0.0,0.0,46,0.00,,,0.00,open2300-1.11,2011-05-25 03:54:00,
2011-05-24 22:04:00,56.8,36.2,29.92,NNW,337,0.0,0.0,46,0.00,,,0.00,open2300-1.11,2011-05-25 04:04:00,
2011-05-24 22:14:00,56.5,35.8,29.92,NW,315,0.0,0.0,46,0.00,,,0.00,open2300-1.11,2011-05-25 04:14:00,
2011-05-24 22:24:00,56.3,35.1,29.92,NW,315,0.0,0.0,45,0.00,,,0.00,open2300-1.11,2011-05-25 04:24:00,
2011-05-24 22:34:00,56.3,35.7,29.93,NW,315,0.0,0.0,46,0.00,,,0.00,open2300-1.11,2011-05-25 04:34:00,
2011-05-24 22:44:00,56.1,35.5,29.92,NW,315,0.0,0.0,46,0.00,,,0.00,open2300-1.11,2011-05-25 04:44:00,
2011-05-24 22:54:00,55.9,35.3,29.93,NW,315,0.0,0.0,46,0.00,,,0.00,open2300-1.11,2011-05-25 04:54:00,
2011-05-24 23:04:00,55.6,35.0,29.93,NW,315,0.0,0.0,46,0.00,,,0.00,open2300-1.11,2011-05-25 05:04:00,
2011-05-24 23:14:00,55.2,35.8,29.93,NW,315,0.0,0.0,48,0.00,,,0.00,open2300-1.11,2011-05-25 05:14:00,
2011-05-24 23:24:00,54.7,35.8,29.93,NW,315,0.0,0.0,49,0.00,,,0.00,open2300-1.11,2011-05-25 05:24:00,
2011-05-24 23:34:00,54.1,35.9,29.93,NW,315,0.0,0.0,50,0.00,,,0.00,open2300-1.11,2011-05-25 05:34:00,
2011-05-24 23:44:00,53.4,35.3,29.93,NW,315,0.0,0.0,50,0.00,,,0.00,open2300-1.11,2011-05-25 05:44:00,
2011-05-24 23:54:00,52.7,35.5,29.94,NW,315,0.0,0.0,52,0.00,,,0.00,open2300-1.11,2011-05-25 05:54:00,